createdAt,value
2018-04-25T00:00:15.879Z,1001.61
2018-04-25T00:01:15.857Z,1001.57
2018-04-25T00:02:15.880Z,1001.54
2018-04-25T00:03:15.885Z,1001.57
2018-04-25T00:04:15.921Z,1001.50
2018-04-25T00:05:15.972Z,1001.54
2018-04-25T00:06:15.948Z,1001.54
2018-04-25T00:07:15.965Z,1001.41
2018-04-25T00:08:15.984Z,1001.41
2018-04-25T00:09:16.009Z,1001.35
2018-04-25T00:10:16.082Z,1001.36
2018-04-25T00:11:16.059Z,1001.35
2018-04-25T00:12:16.085Z,1001.32
2018-04-25T00:13:16.103Z,1001.30
2018-04-25T00:14:16.119Z,1001.27
2018-04-25T00:15:16.184Z,1001.25
2018-04-25T00:16:16.164Z,1001.27
2018-04-25T00:17:16.186Z,1001.24
2018-04-25T00:18:16.192Z,1001.28
2018-04-25T00:19:16.222Z,1001.21
2018-04-25T00:20:16.218Z,1001.23
2018-04-25T00:21:16.263Z,1001.15
2018-04-25T00:22:16.273Z,1001.10
2018-04-25T00:23:16.287Z,1001.12
2018-04-25T00:24:16.372Z,1001.08
2018-04-25T00:25:16.376Z,1001.07
2018-04-25T00:26:16.366Z,1001.03
2018-04-25T00:27:16.374Z,1001.01
2018-04-25T00:28:16.367Z,1000.98
2018-04-25T00:29:16.421Z,1000.91
2018-04-25T00:30:16.483Z,1000.91
2018-04-25T00:31:16.459Z,1000.93
2018-04-25T00:32:16.444Z,1000.88
2018-04-25T00:33:16.468Z,1000.87
2018-04-25T00:34:16.484Z,1000.86
2018-04-25T00:35:16.502Z,1000.87
2018-04-25T00:36:16.531Z,1000.85
2018-04-25T00:37:16.545Z,1000.84
2018-04-25T00:38:16.599Z,1000.87
2018-04-25T00:39:16.619Z,1000.90
2018-04-25T00:40:16.609Z,1000.86
2018-04-25T00:41:16.628Z,1000.88
2018-04-25T00:42:16.648Z,1000.85
2018-04-25T00:43:16.665Z,1000.88
2018-04-25T00:44:16.695Z,1000.84
2018-04-25T00:45:16.709Z,1000.85
2018-04-25T00:46:16.732Z,1000.85
2018-04-25T00:47:16.750Z,1000.84
2018-04-25T00:48:16.768Z,1000.77
2018-04-25T00:49:16.791Z,1000.73
2018-04-25T00:50:16.812Z,1000.69
2018-04-25T00:51:16.831Z,1000.65
2018-04-25T00:52:16.855Z,1000.62
2018-04-25T00:53:16.871Z,1000.65
2018-04-25T00:54:16.896Z,1000.64
2018-04-25T00:55:16.909Z,1000.67
2018-04-25T00:56:16.976Z,1000.67
2018-04-25T00:57:16.959Z,1000.67
2018-04-25T00:58:16.970Z,1000.65
2018-04-25T00:59:16.992Z,1000.56
2018-04-25T01:00:17.017Z,1000.59
2018-04-25T01:01:17.032Z,1000.51
2018-04-25T01:02:17.054Z,1000.51
2018-04-25T01:03:17.073Z,1000.48
2018-04-25T01:04:17.094Z,1000.45
2018-04-25T01:05:17.117Z,1000.45
2018-04-25T01:06:17.135Z,1000.37
2018-04-25T01:07:17.159Z,1000.43
2018-04-25T01:08:17.176Z,1000.32
2018-04-25T01:09:17.202Z,1000.28
2018-04-25T01:10:17.213Z,1000.18
2018-04-25T01:11:17.243Z,1000.22
2018-04-25T01:12:17.255Z,1000.26
2018-04-25T01:13:17.279Z,1000.19
2018-04-25T01:14:17.301Z,1000.20
2018-04-25T01:15:17.323Z,1000.24
2018-04-25T01:16:17.336Z,1000.26
2018-04-25T01:17:17.357Z,1000.24
2018-04-25T01:18:17.385Z,1000.23
2018-04-25T01:19:17.404Z,1000.23
2018-04-25T01:20:17.421Z,1000.17
2018-04-25T01:21:17.446Z,1000.15
2018-04-25T01:22:17.460Z,1000.15
2018-04-25T01:23:17.485Z,1000.15
2018-04-25T01:24:17.502Z,1000.18
2018-04-25T01:25:17.528Z,1000.16
2018-04-25T01:26:17.540Z,1000.13
2018-04-25T01:27:17.569Z,1000.19
2018-04-25T01:28:17.581Z,1000.16
2018-04-25T01:29:17.605Z,1000.16
2018-04-25T01:30:17.624Z,1000.14
2018-04-25T01:31:17.647Z,1000.22
2018-04-25T01:32:17.664Z,1000.16
2018-04-25T01:33:17.691Z,1000.20
2018-04-25T01:34:17.702Z,1000.18
2018-04-25T01:35:17.731Z,1000.14
2018-04-25T01:36:17.743Z,1000.07
2018-04-25T01:37:17.771Z,1000.09
2018-04-25T01:38:17.788Z,1000.07
2018-04-25T01:39:17.806Z,1000.08
2018-04-25T01:40:17.830Z,1000.03
2018-04-25T01:41:17.845Z,1000.03
2018-04-25T01:42:17.872Z,999.99
2018-04-25T01:43:17.885Z,1000.05
2018-04-25T01:44:17.914Z,1000.00
2018-04-25T01:45:17.936Z,1000.01
2018-04-25T01:46:17.947Z,999.98
2018-04-25T01:47:17.969Z,999.94
2018-04-25T01:48:17.992Z,999.96
2018-04-25T01:49:18.008Z,999.96
2018-04-25T01:50:18.036Z,999.94
2018-04-25T01:51:18.054Z,999.94
2018-04-25T01:52:18.072Z,999.92
2018-04-25T01:53:18.095Z,999.92
2018-04-25T01:54:18.117Z,999.93
2018-04-25T01:55:18.135Z,999.93
2018-04-25T01:56:18.153Z,999.92
2018-04-25T01:57:18.172Z,999.96
2018-04-25T01:58:18.196Z,999.95
2018-04-25T01:59:18.219Z,999.93
2018-04-25T02:00:18.231Z,999.91
2018-04-25T02:01:18.253Z,999.87
2018-04-25T02:02:18.281Z,999.84
2018-04-25T02:03:18.298Z,999.86
2018-04-25T02:04:18.315Z,999.85
2018-04-25T02:05:18.345Z,999.88
2018-04-25T02:06:18.353Z,999.83
2018-04-25T02:07:18.377Z,999.81
2018-04-25T02:08:18.399Z,999.79
2018-04-25T02:09:18.417Z,999.76
2018-04-25T02:10:18.440Z,999.73
2018-04-25T02:11:18.457Z,999.77
2018-04-25T02:12:18.475Z,999.75
2018-04-25T02:13:18.498Z,999.71
2018-04-25T02:14:18.524Z,999.72
2018-04-25T02:15:18.542Z,999.70
2018-04-25T02:16:18.559Z,999.77
2018-04-25T02:17:18.586Z,999.77
2018-04-25T02:18:18.597Z,999.72
2018-04-25T02:19:18.629Z,999.71
2018-04-25T02:20:18.638Z,999.68
2018-04-25T02:21:18.665Z,999.69
2018-04-25T02:22:18.682Z,999.71
2018-04-25T02:23:18.704Z,999.74
2018-04-25T02:24:18.723Z,999.68
2018-04-25T02:25:18.746Z,999.69
2018-04-25T02:26:18.763Z,999.67
2018-04-25T02:27:18.785Z,999.66
2018-04-25T02:28:18.804Z,999.65
2018-04-25T02:29:18.831Z,999.67
2018-04-25T02:30:18.842Z,999.70
2018-04-25T02:31:18.871Z,999.69
2018-04-25T02:32:18.884Z,999.67
2018-04-25T02:33:18.903Z,999.68
2018-04-25T02:34:18.931Z,999.68
2018-04-25T02:35:18.975Z,999.67
2018-04-25T02:36:18.973Z,999.68
2018-04-25T02:37:18.988Z,999.70
2018-04-25T02:38:19.011Z,999.65
2018-04-25T02:39:19.028Z,999.76
2018-04-25T02:40:19.052Z,999.65
2018-04-25T02:41:19.073Z,999.67
2018-04-25T02:42:19.092Z,999.66
2018-04-25T02:43:19.109Z,999.65
2018-04-25T02:44:19.135Z,999.61
2018-04-25T02:45:19.148Z,999.56
2018-04-25T02:46:19.177Z,999.65
2018-04-25T02:47:19.190Z,999.60
2018-04-25T02:48:19.219Z,999.51
2018-04-25T02:49:19.238Z,999.55
2018-04-25T02:50:19.251Z,999.51
2018-04-25T02:51:19.274Z,999.51
2018-04-25T02:52:19.298Z,999.49
2018-04-25T02:53:19.312Z,999.48
2018-04-25T02:54:19.341Z,999.47
2018-04-25T02:55:19.361Z,999.50
2018-04-25T02:56:19.375Z,999.51
2018-04-25T02:57:19.394Z,999.43
2018-04-25T02:58:19.421Z,999.54
2018-04-25T02:59:19.434Z,999.43
2018-04-25T03:00:19.457Z,999.44
2018-04-25T03:01:19.477Z,999.41
2018-04-25T03:02:19.500Z,999.45
2018-04-25T03:03:19.525Z,999.41
2018-04-25T03:04:19.536Z,999.36
2018-04-25T03:05:19.563Z,999.36
2018-04-25T03:06:19.580Z,999.41
2018-04-25T03:07:19.598Z,999.37
2018-04-25T03:08:19.629Z,999.42
2018-04-25T03:09:19.643Z,999.43
2018-04-25T03:10:19.671Z,999.39
2018-04-25T03:11:19.688Z,999.37
2018-04-25T03:12:19.700Z,999.34
2018-04-25T03:13:19.724Z,999.35
2018-04-25T03:14:19.747Z,999.39
2018-04-25T03:15:19.765Z,999.35
2018-04-25T03:16:19.783Z,999.34
2018-04-25T03:17:19.803Z,999.41
2018-04-25T03:18:19.834Z,999.33
2018-04-25T03:19:19.857Z,999.34
2018-04-25T03:20:19.868Z,999.33
2018-04-25T03:21:19.889Z,999.26
2018-04-25T03:22:19.909Z,999.30
2018-04-25T03:23:19.925Z,999.33
2018-04-25T03:24:19.955Z,999.26
2018-04-25T03:25:19.976Z,999.24
2018-04-25T03:26:19.996Z,999.17
2018-04-25T03:27:20.008Z,999.23
2018-04-25T03:28:20.043Z,999.16
2018-04-25T03:29:20.050Z,999.21
2018-04-25T03:30:20.074Z,999.22
2018-04-25T03:31:20.091Z,999.18
2018-04-25T03:32:20.117Z,999.21
2018-04-25T03:33:20.135Z,999.13
2018-04-25T03:34:20.158Z,999.24
2018-04-25T03:35:20.181Z,999.20
2018-04-25T03:36:20.193Z,999.28
2018-04-25T03:37:20.222Z,999.23
2018-04-25T03:38:20.238Z,999.20
2018-04-25T03:39:20.262Z,999.28
2018-04-25T03:40:20.280Z,999.30
2018-04-25T03:41:20.305Z,999.29
2018-04-25T03:42:20.321Z,999.35
2018-04-25T03:43:20.346Z,999.22
2018-04-25T03:44:20.358Z,999.29
2018-04-25T03:45:20.382Z,999.23
2018-04-25T03:46:20.399Z,999.22
2018-04-25T03:47:20.422Z,999.20
2018-04-25T03:48:20.444Z,999.22
2018-04-25T03:49:20.460Z,999.16
2018-04-25T03:50:20.488Z,999.25
2018-04-25T03:51:20.506Z,999.26
2018-04-25T03:52:20.528Z,999.15
2018-04-25T03:53:20.546Z,999.24
2018-04-25T03:54:20.568Z,999.13
2018-04-25T03:55:20.591Z,999.14
2018-04-25T03:56:20.604Z,999.16
2018-04-25T03:57:20.630Z,999.17
2018-04-25T03:58:20.646Z,999.16
2018-04-25T03:59:20.664Z,999.17
2018-04-25T04:00:20.693Z,999.12
2018-04-25T04:01:20.707Z,999.19
2018-04-25T04:02:20.735Z,999.21
2018-04-25T04:03:20.751Z,999.21
2018-04-25T04:04:20.779Z,999.08
2018-04-25T04:05:20.790Z,999.18
2018-04-25T04:06:20.811Z,999.10
2018-04-25T04:07:20.836Z,999.10
2018-04-25T04:08:20.850Z,999.10
2018-04-25T04:09:20.876Z,999.14
2018-04-25T04:10:20.891Z,999.05
2018-04-25T04:11:20.912Z,999.07
2018-04-25T04:12:20.939Z,999.13
2018-04-25T04:13:20.954Z,999.10
2018-04-25T04:14:20.977Z,999.13
2018-04-25T04:15:21.001Z,999.18
2018-04-25T04:16:21.013Z,999.15
2018-04-25T04:17:21.041Z,999.05
2018-04-25T04:18:21.054Z,999.10
2018-04-25T04:19:21.084Z,999.09
2018-04-25T04:20:21.100Z,999.14
2018-04-25T04:21:21.120Z,999.08
2018-04-25T04:22:21.143Z,999.09
2018-04-25T04:23:21.165Z,999.10
2018-04-25T04:24:21.179Z,999.14
2018-04-25T04:25:21.199Z,999.15
2018-04-25T04:26:21.224Z,999.08
2018-04-25T04:27:21.240Z,999.14
2018-04-25T04:28:21.266Z,999.19
2018-04-25T04:29:21.280Z,999.13
2018-04-25T04:30:21.307Z,999.17
2018-04-25T04:31:21.322Z,999.14
2018-04-25T04:32:21.349Z,999.14
2018-04-25T04:33:21.361Z,999.05
2018-04-25T04:34:21.383Z,999.14
2018-04-25T04:35:21.405Z,999.28
2018-04-25T04:36:21.425Z,999.16
2018-04-25T04:37:21.446Z,999.17
2018-04-25T04:38:21.468Z,999.14
2018-04-25T04:39:21.492Z,999.12
2018-04-25T04:40:21.587Z,999.15
2018-04-25T04:41:21.525Z,999.13
2018-04-25T04:42:21.554Z,999.21
2018-04-25T04:43:21.566Z,999.09
2018-04-25T04:44:21.594Z,999.16
2018-04-25T04:45:21.609Z,999.13
2018-04-25T04:46:21.633Z,999.05
2018-04-25T04:47:21.649Z,999.19
2018-04-25T04:48:21.672Z,999.10
2018-04-25T04:49:21.697Z,999.06
2018-04-25T04:50:21.708Z,999.10
2018-04-25T04:51:21.736Z,999.07
2018-04-25T04:52:21.749Z,999.05
2018-04-25T04:53:21.769Z,999.06
2018-04-25T04:54:21.791Z,999.03
2018-04-25T04:55:21.817Z,999.04
2018-04-25T04:56:21.834Z,999.06
2018-04-25T04:57:21.859Z,999.01
2018-04-25T04:58:21.871Z,999.03
2018-04-25T04:59:21.899Z,999.01
2018-04-25T05:00:21.912Z,999.03
2018-04-25T05:01:22.310Z,999.00
2018-04-25T05:02:21.961Z,999.01
2018-04-25T05:03:21.973Z,999.02
2018-04-25T05:04:22.001Z,999.09
2018-04-25T05:05:22.015Z,999.18
2018-04-25T05:06:22.090Z,999.08
2018-04-25T05:07:22.084Z,999.10
2018-04-25T05:08:22.105Z,999.12
2018-04-25T05:09:22.137Z,999.05
2018-04-25T05:10:22.203Z,999.01
2018-04-25T05:11:22.180Z,999.11
2018-04-25T05:12:22.194Z,999.04
2018-04-25T05:13:22.222Z,999.06
2018-04-25T05:14:22.205Z,999.11
2018-04-25T05:15:22.304Z,999.09
2018-04-25T05:16:22.252Z,999.18
2018-04-25T05:17:22.298Z,999.04
2018-04-25T05:18:22.306Z,999.12
2018-04-25T05:19:22.329Z,999.29
2018-04-25T05:20:22.409Z,999.17
2018-04-25T05:21:22.374Z,999.12
2018-04-25T05:22:22.389Z,999.13
2018-04-25T05:23:22.415Z,999.04
2018-04-25T05:24:22.414Z,999.18
2018-04-25T05:25:22.431Z,999.20
2018-04-25T05:26:22.454Z,999.20
2018-04-25T05:27:22.468Z,999.23
2018-04-25T05:28:22.489Z,999.20
2018-04-25T05:29:22.510Z,999.16
2018-04-25T05:30:22.528Z,999.22
2018-04-25T05:31:22.545Z,999.25
2018-04-25T05:32:22.574Z,999.22
2018-04-25T05:33:22.590Z,999.18
2018-04-25T05:34:22.611Z,999.20
2018-04-25T05:35:22.637Z,999.13
2018-04-25T05:36:22.647Z,999.23
2018-04-25T05:37:22.675Z,999.26
2018-04-25T05:38:22.693Z,999.30
2018-04-25T05:39:22.711Z,999.41
2018-04-25T05:40:22.728Z,999.39
2018-04-25T05:41:22.749Z,999.46
2018-04-25T05:42:22.784Z,999.58
2018-04-25T05:43:22.796Z,999.58
2018-04-25T05:44:22.814Z,999.59
2018-04-25T05:45:22.839Z,999.70
2018-04-25T05:46:22.850Z,999.77
2018-04-25T05:47:22.874Z,999.74
2018-04-25T05:48:22.897Z,999.80
2018-04-25T05:49:22.917Z,999.79
2018-04-25T05:50:22.940Z,999.81
2018-04-25T05:51:22.958Z,999.86
2018-04-25T05:52:22.975Z,999.97
2018-04-25T05:53:22.993Z,999.99
2018-04-25T05:54:23.020Z,999.89
2018-04-25T05:55:23.035Z,999.93
2018-04-25T05:56:23.057Z,999.98
2018-04-25T05:57:23.077Z,1000.00
2018-04-25T05:58:23.099Z,1000.00
2018-04-25T05:59:23.122Z,1000.05
2018-04-25T06:00:23.133Z,999.99
2018-04-25T06:01:23.160Z,1000.00
2018-04-25T06:02:23.177Z,999.98
2018-04-25T06:03:23.200Z,1000.02
2018-04-25T06:04:23.216Z,1000.03
2018-04-25T06:05:23.243Z,1000.02
2018-04-25T06:06:23.253Z,1000.01
2018-04-25T06:07:23.283Z,1000.04
2018-04-25T06:08:23.294Z,999.98
2018-04-25T06:09:23.323Z,1000.02
2018-04-25T06:10:23.333Z,999.94
2018-04-25T06:11:23.362Z,1000.01
2018-04-25T06:12:23.464Z,1000.09
2018-04-25T06:13:23.486Z,1000.09
2018-04-25T06:14:23.418Z,1000.04
2018-04-25T06:15:23.443Z,1000.00
2018-04-25T06:16:23.458Z,999.98
2018-04-25T06:17:23.476Z,1000.01
2018-04-25T06:18:23.500Z,1000.11
2018-04-25T06:19:23.516Z,1000.10
2018-04-25T06:20:23.619Z,1000.17
2018-04-25T06:21:23.555Z,1000.25
2018-04-25T06:22:23.582Z,1000.20
2018-04-25T06:23:23.594Z,1000.12
2018-04-25T06:24:23.622Z,1000.16
2018-04-25T06:25:23.634Z,1000.18
2018-04-25T06:26:23.661Z,1000.14
2018-04-25T06:27:23.673Z,1000.22
2018-04-25T06:28:23.702Z,1000.30
2018-04-25T06:29:23.717Z,1000.29
2018-04-25T06:30:23.739Z,1000.41
2018-04-25T06:31:23.761Z,1000.49
2018-04-25T06:32:23.781Z,1000.44
2018-04-25T06:33:23.799Z,1000.36
2018-04-25T06:34:23.815Z,1000.38
2018-04-25T06:35:23.924Z,1000.32
2018-04-25T06:36:23.865Z,1000.37
2018-04-25T06:37:23.876Z,1000.40
2018-04-25T06:38:23.898Z,1000.71
2018-04-25T06:39:23.980Z,1000.65
2018-04-25T06:40:23.933Z,1000.47
2018-04-25T06:41:23.962Z,1000.67
2018-04-25T06:42:23.978Z,1000.40
2018-04-25T06:43:23.995Z,1000.51
2018-04-25T06:44:24.013Z,1001.85
2018-04-25T06:45:24.035Z,1001.39
2018-04-25T06:46:24.062Z,1000.52
2018-04-25T06:47:24.079Z,1000.53
2018-04-25T06:48:24.097Z,1000.45
2018-04-25T06:49:24.118Z,1000.40
2018-04-25T06:50:24.141Z,1000.46
2018-04-25T06:51:24.165Z,1000.45
2018-04-25T06:52:24.176Z,1000.56
2018-04-25T06:53:24.202Z,1000.40
2018-04-25T06:54:24.217Z,1000.57
2018-04-25T06:55:24.240Z,1000.55
2018-04-25T06:56:24.268Z,1000.93
2018-04-25T06:57:24.286Z,1000.74
2018-04-25T06:58:24.309Z,1003.67
2018-04-25T06:59:24.320Z,1000.61
2018-04-25T07:00:24.346Z,1000.63
2018-04-25T07:01:24.367Z,1000.58
2018-04-25T07:02:24.390Z,1000.51
2018-04-25T07:03:24.414Z,1000.51
2018-04-25T07:04:24.426Z,1001.51
2018-04-25T07:05:24.447Z,1000.55
2018-04-25T07:06:24.475Z,1000.43
2018-04-25T07:07:24.583Z,1000.58
2018-04-25T07:08:24.515Z,1001.42
2018-04-25T07:09:24.535Z,1001.91
2018-04-25T07:10:24.556Z,1001.46
2018-04-25T07:11:24.582Z,1000.53
2018-04-25T07:12:24.594Z,1001.46
2018-04-25T07:13:24.701Z,1002.03
2018-04-25T07:14:24.639Z,1000.69
2018-04-25T07:15:24.667Z,1001.95
2018-04-25T07:16:24.680Z,1000.61
2018-04-25T07:17:24.707Z,1001.96
2018-04-25T07:18:24.726Z,1000.60
2018-04-25T07:19:24.751Z,1000.49
2018-04-25T07:20:24.774Z,1000.54
2018-04-25T07:21:24.799Z,1000.46
2018-04-25T07:22:24.876Z,1000.35
2018-04-25T07:23:24.842Z,1000.53
2018-04-25T07:24:24.856Z,1000.55
2018-04-25T07:25:24.884Z,1000.45
2018-04-25T07:26:24.904Z,1000.60
2018-04-25T07:27:24.928Z,1000.61
2018-04-25T07:28:24.948Z,1000.61
2018-04-25T07:29:24.979Z,1000.58
2018-04-25T07:30:24.998Z,1000.58
2018-04-25T07:31:25.012Z,1000.71
2018-04-25T07:32:25.042Z,1001.19
2018-04-25T07:33:25.058Z,1000.85
2018-04-25T07:34:25.082Z,1001.34
2018-04-25T07:35:25.171Z,1001.18
2018-04-25T07:36:25.127Z,1000.85
2018-04-25T07:37:25.152Z,1000.68
2018-04-25T07:38:25.168Z,1000.68
2018-04-25T07:39:25.192Z,1000.63
2018-04-25T07:40:25.211Z,1000.59
2018-04-25T07:41:25.234Z,1000.67
2018-04-25T07:42:25.259Z,1000.62
2018-04-25T07:43:25.278Z,1000.69
2018-04-25T07:44:25.304Z,1000.66
2018-04-25T07:45:25.328Z,1000.81
2018-04-25T07:46:25.347Z,1000.97
2018-04-25T07:47:25.370Z,1000.96
2018-04-25T07:48:25.390Z,1000.94
2018-04-25T07:49:25.438Z,1000.83
2018-04-25T07:50:25.437Z,1000.84
2018-04-25T07:51:25.456Z,1000.88
2018-04-25T07:52:25.475Z,1000.89
2018-04-25T07:53:25.496Z,1000.80
2018-04-25T07:54:25.521Z,1000.86
2018-04-25T07:55:25.548Z,1000.90
2018-04-25T07:56:25.559Z,1000.92
2018-04-25T07:57:25.585Z,1001.03
2018-04-25T07:58:25.604Z,1001.06
2018-04-25T07:59:25.625Z,1001.09
2018-04-25T08:00:25.652Z,1001.10
2018-04-25T08:01:25.672Z,1001.12
2018-04-25T08:02:25.689Z,1001.22
2018-04-25T08:03:25.714Z,1001.26
2018-04-25T08:04:25.742Z,1001.38
2018-04-25T08:05:25.759Z,1001.24
2018-04-25T08:06:25.777Z,1001.23
2018-04-25T08:07:25.801Z,1001.25
2018-04-25T08:08:25.816Z,1001.31
2018-04-25T08:09:25.836Z,1001.30
2018-04-25T08:10:25.863Z,1001.38
2018-04-25T08:11:25.878Z,1001.39
2018-04-25T08:12:25.984Z,1001.64
2018-04-25T08:13:25.924Z,1001.51
2018-04-25T08:14:25.946Z,1001.54
2018-04-25T08:15:25.967Z,1001.55
2018-04-25T08:16:25.989Z,1001.47
2018-04-25T08:17:26.015Z,1001.44
2018-04-25T08:18:26.026Z,1001.43
2018-04-25T08:19:26.050Z,1001.54
2018-04-25T08:20:26.068Z,1001.34
2018-04-25T08:21:26.091Z,1001.34
2018-04-25T08:22:26.114Z,1001.42
2018-04-25T08:23:26.139Z,1001.57
2018-04-25T08:24:26.158Z,1001.58
2018-04-25T08:25:26.182Z,1001.60
2018-04-25T08:26:26.203Z,1001.93
2018-04-25T08:27:26.222Z,1001.82
2018-04-25T08:28:26.247Z,1001.93
2018-04-25T08:29:26.263Z,1002.12
2018-04-25T08:30:26.293Z,1003.01
2018-04-25T08:31:26.306Z,1001.69
2018-04-25T08:32:26.337Z,1001.70
2018-04-25T08:33:26.405Z,1001.64
2018-04-25T08:34:26.375Z,1001.64
2018-04-25T08:35:26.396Z,1001.82
2018-04-25T08:36:26.421Z,1001.73
2018-04-25T08:37:26.442Z,1001.65
2018-04-25T08:38:26.461Z,1001.75
2018-04-25T08:39:26.492Z,1001.78
2018-04-25T08:40:26.507Z,1001.85
2018-04-25T08:41:26.532Z,1001.89
2018-04-25T08:42:26.559Z,1003.01
2018-04-25T08:43:26.586Z,1003.11
2018-04-25T08:44:26.603Z,1002.04
2018-04-25T08:45:26.628Z,1002.06
2018-04-25T08:46:26.641Z,1002.14
2018-04-25T08:47:26.671Z,1002.35
2018-04-25T08:48:26.695Z,1002.42
2018-04-25T08:49:26.721Z,1003.16
2018-04-25T08:50:26.740Z,1001.96
2018-04-25T08:51:26.769Z,1002.89
2018-04-25T08:52:26.783Z,1003.00
2018-04-25T08:53:26.807Z,1002.98
2018-04-25T08:54:26.840Z,1002.11
2018-04-25T08:55:26.855Z,1003.22
2018-04-25T08:56:26.883Z,1003.12
2018-04-25T08:57:26.913Z,1002.33
2018-04-25T08:58:26.929Z,1002.64
2018-04-25T08:59:26.957Z,1002.12
2018-04-25T09:00:26.983Z,1002.39
2018-04-25T09:01:27.003Z,1002.58
2018-04-25T09:02:27.037Z,1002.08
2018-04-25T09:03:27.060Z,1002.42
2018-04-25T09:04:27.082Z,1003.17
2018-04-25T09:05:27.106Z,1002.28
2018-04-25T09:06:27.131Z,1002.05
2018-04-25T09:07:27.161Z,1002.99
2018-04-25T09:08:27.187Z,1003.13
2018-04-25T09:09:27.217Z,1002.19
2018-04-25T09:10:27.230Z,1003.21
2018-04-25T09:11:27.262Z,1003.27
2018-04-25T09:12:27.282Z,1003.10
2018-04-25T09:13:27.305Z,1003.21
2018-04-25T09:14:27.338Z,1002.41
2018-04-25T09:15:27.446Z,1002.38
2018-04-25T09:16:27.392Z,1003.30
2018-04-25T09:17:27.413Z,1002.63
2018-04-25T09:18:27.439Z,1002.48
2018-04-25T09:19:27.463Z,1003.13
2018-04-25T09:20:27.491Z,1003.15
2018-04-25T09:21:27.520Z,1002.48
2018-04-25T09:22:27.536Z,1002.44
2018-04-25T09:23:27.566Z,1002.59
2018-04-25T09:24:27.590Z,1002.50
2018-04-25T09:25:27.618Z,1002.40
2018-04-25T09:26:27.644Z,1002.51
2018-04-25T09:27:27.679Z,1002.48
2018-04-25T09:28:27.695Z,1003.43
2018-04-25T09:29:27.728Z,1002.47
2018-04-25T09:30:27.744Z,1002.46
2018-04-25T09:31:27.782Z,1003.56
2018-04-25T09:32:27.795Z,1002.56
2018-04-25T09:33:27.828Z,1002.52
2018-04-25T09:34:27.954Z,1002.50
2018-04-25T09:35:27.877Z,1002.55
2018-04-25T09:36:27.903Z,1002.61
2018-04-25T09:37:27.929Z,1002.57
2018-04-25T09:38:27.950Z,1002.74
2018-04-25T09:39:27.973Z,1002.74
2018-04-25T09:40:28.008Z,1003.72
2018-04-25T09:41:28.027Z,1002.61
2018-04-25T09:42:28.052Z,1002.53
2018-04-25T09:43:28.083Z,1002.56
2018-04-25T09:44:28.105Z,1002.51
2018-04-25T09:45:28.126Z,1002.51
2018-04-25T09:46:28.159Z,1002.61
2018-04-25T09:47:28.178Z,1002.61
2018-04-25T09:48:28.209Z,1002.58
2018-04-25T09:49:28.230Z,1002.68
2018-04-25T09:50:28.255Z,1002.79
2018-04-25T09:51:28.282Z,1002.65
2018-04-25T09:52:28.308Z,1002.69
2018-04-25T09:53:28.338Z,1002.68
2018-04-25T09:54:28.356Z,1002.73
2018-04-25T09:55:28.381Z,1002.73
2018-04-25T09:56:28.404Z,1002.75
2018-04-25T09:57:28.616Z,1002.80
2018-04-25T09:58:28.451Z,1002.85
2018-04-25T09:59:28.473Z,1002.87
2018-04-25T10:00:28.495Z,1002.74
2018-04-25T10:01:28.517Z,1002.74
2018-04-25T10:02:28.543Z,1002.93
2018-04-25T10:03:28.569Z,1002.76
2018-04-25T10:04:28.584Z,1002.86
2018-04-25T10:05:28.607Z,1002.79
2018-04-25T10:06:28.638Z,1002.84
2018-04-25T10:07:28.657Z,1002.87
2018-04-25T10:08:28.678Z,1002.83
2018-04-25T10:09:28.712Z,1002.94
2018-04-25T10:10:28.727Z,1002.96
2018-04-25T10:11:28.742Z,1002.95
2018-04-25T10:12:28.767Z,1002.98
2018-04-25T10:13:28.790Z,1003.01
2018-04-25T10:14:28.813Z,1002.94
2018-04-25T10:15:28.833Z,1003.08
2018-04-25T10:16:28.859Z,1003.10
2018-04-25T10:17:28.874Z,1003.17
2018-04-25T10:18:28.903Z,1003.16
2018-04-25T10:19:28.922Z,1003.17
2018-04-25T10:20:28.948Z,1003.20
2018-04-25T10:21:28.964Z,1003.19
2018-04-25T10:22:28.992Z,1003.25
2018-04-25T10:23:29.009Z,1003.37
2018-04-25T10:24:29.031Z,1003.34
2018-04-25T10:25:29.057Z,1003.39
2018-04-25T10:26:29.073Z,1003.36
2018-04-25T10:27:29.095Z,1003.34
2018-04-25T10:28:29.120Z,1003.39
2018-04-25T10:29:29.133Z,1003.45
2018-04-25T10:30:29.162Z,1003.40
2018-04-25T10:31:29.182Z,1003.46
2018-04-25T10:32:29.205Z,1003.50
2018-04-25T10:33:29.229Z,1003.45
2018-04-25T10:34:29.239Z,1003.50
2018-04-25T10:35:29.270Z,1003.50
2018-04-25T10:36:29.282Z,1003.56
2018-04-25T10:37:29.309Z,1003.53
2018-04-25T10:38:29.327Z,1003.56
2018-04-25T10:39:29.356Z,1003.50
2018-04-25T10:40:29.441Z,1003.46
2018-04-25T10:41:29.389Z,1003.40
2018-04-25T10:42:29.412Z,1003.33
2018-04-25T10:43:29.435Z,1003.39
2018-04-25T10:44:29.454Z,1003.36
2018-04-25T10:45:29.480Z,1003.40
2018-04-25T10:46:29.494Z,1003.42
2018-04-25T10:47:29.517Z,1003.37
2018-04-25T10:48:29.540Z,1003.38
2018-04-25T10:49:29.557Z,1003.37
2018-04-25T10:50:29.586Z,1003.43
2018-04-25T10:51:29.598Z,1003.56
2018-04-25T10:52:29.628Z,1003.67
2018-04-25T10:53:29.645Z,1003.65
2018-04-25T10:54:29.667Z,1003.54
2018-04-25T10:55:29.859Z,1003.59
2018-04-25T10:56:29.713Z,1003.58
2018-04-25T10:57:29.734Z,1003.61
2018-04-25T10:58:29.751Z,1003.60
2018-04-25T10:59:29.776Z,1003.58
2018-04-25T11:00:29.794Z,1003.60
2018-04-25T11:01:29.813Z,1003.66
2018-04-25T11:02:29.863Z,1003.74
2018-04-25T11:03:29.857Z,1003.72
2018-04-25T11:04:29.961Z,1003.74
2018-04-25T11:05:29.902Z,1003.74
2018-04-25T11:06:29.922Z,1003.70
2018-04-25T11:07:30.002Z,1003.67
2018-04-25T11:08:29.960Z,1003.73
2018-04-25T11:09:29.984Z,1003.75
2018-04-25T11:10:30.011Z,1003.81
2018-04-25T11:11:30.033Z,1003.70
2018-04-25T11:12:30.049Z,1003.70
2018-04-25T11:13:30.067Z,1003.69
2018-04-25T11:14:30.091Z,1003.62
2018-04-25T11:15:30.111Z,1003.64
2018-04-25T11:16:30.140Z,1003.57
2018-04-25T11:17:30.165Z,1003.72
2018-04-25T11:18:30.178Z,1003.62
2018-04-25T11:19:30.207Z,1003.61
2018-04-25T11:20:30.226Z,1003.59
2018-04-25T11:21:30.240Z,1003.55
2018-04-25T11:22:30.270Z,1003.50
2018-04-25T11:23:30.285Z,1003.61
2018-04-25T11:24:30.314Z,1003.61
2018-04-25T11:25:30.331Z,1003.56
2018-04-25T11:26:30.409Z,1003.63
2018-04-25T11:27:30.375Z,1003.64
2018-04-25T11:28:30.399Z,1003.56
2018-04-25T11:29:30.423Z,1003.61
2018-04-25T11:30:30.442Z,1003.67
2018-04-25T11:31:30.468Z,1003.70
2018-04-25T11:32:30.479Z,1003.68
2018-04-25T11:33:30.501Z,1003.72
2018-04-25T11:34:30.531Z,1003.75
2018-04-25T11:35:30.549Z,1003.67
2018-04-25T11:36:30.569Z,1003.70
2018-04-25T11:37:30.596Z,1003.76
2018-04-25T11:38:30.610Z,1003.82
2018-04-25T11:39:30.640Z,1003.83
2018-04-25T11:40:30.653Z,1003.80
2018-04-25T11:41:30.681Z,1003.85
2018-04-25T11:42:30.697Z,1003.82
2018-04-25T11:43:30.723Z,1003.84
2018-04-25T11:44:30.742Z,1003.86
2018-04-25T11:45:30.767Z,1003.89
2018-04-25T11:46:30.793Z,1003.93
2018-04-25T11:47:30.802Z,1003.90
2018-04-25T11:48:30.834Z,1003.92
2018-04-25T11:49:30.851Z,1003.94
2018-04-25T11:50:30.875Z,1003.96
2018-04-25T11:51:30.896Z,1003.95
2018-04-25T11:52:30.915Z,1003.96
2018-04-25T11:53:30.936Z,1003.96
2018-04-25T11:54:30.955Z,1003.99
2018-04-25T11:55:30.979Z,1004.00
2018-04-25T11:56:31.000Z,1003.96
2018-04-25T11:57:31.025Z,1003.97
2018-04-25T11:58:31.038Z,1003.99
2018-04-25T11:59:31.067Z,1003.98
2018-04-25T12:00:31.081Z,1003.98
2018-04-25T12:01:31.109Z,1003.96
2018-04-25T12:02:31.121Z,1004.00
2018-04-25T12:03:31.150Z,1003.95
2018-04-25T12:04:31.165Z,1003.98
2018-04-25T12:05:31.191Z,1003.98
2018-04-25T12:06:31.208Z,1004.07
2018-04-25T12:07:31.232Z,1004.07
2018-04-25T12:08:31.252Z,1003.98
2018-04-25T12:09:31.278Z,1004.04
2018-04-25T12:10:31.340Z,1004.08
2018-04-25T12:11:31.316Z,1004.07
2018-04-25T12:12:31.337Z,1004.07
2018-04-25T12:13:31.360Z,1004.07